createdAt,value
2023-04-18T00:00:10.575Z,82
2023-04-18T00:01:17.690Z,82
2023-04-18T00:02:24.808Z,82
2023-04-18T00:03:32.060Z,82
2023-04-18T00:04:38.666Z,82
2023-04-18T00:05:45.543Z,82
2023-04-18T00:06:52.975Z,82
2023-04-18T00:09:07.006Z,82
2023-04-18T00:10:13.377Z,82
2023-04-18T00:11:20.530Z,82
2023-04-18T00:12:27.693Z,82
2023-04-18T00:13:34.809Z,82
2023-04-18T00:14:41.792Z,82
2023-04-18T00:15:48.411Z,82
2023-04-18T00:16:55.533Z,82
2023-04-18T00:18:02.800Z,82
2023-04-18T00:19:09.752Z,82
2023-04-18T00:20:16.883Z,82
2023-04-18T00:21:23.530Z,82
2023-04-18T00:22:30.573Z,82
2023-04-18T00:23:37.641Z,82
2023-04-18T00:24:44.745Z,82
2023-04-18T00:25:51.863Z,82
2023-04-18T00:26:58.502Z,83
2023-04-18T00:28:05.761Z,83
2023-04-18T00:29:12.658Z,83
2023-04-18T00:30:19.805Z,83
2023-04-18T00:31:26.913Z,83
2023-04-18T00:32:33.525Z,83
2023-04-18T00:33:40.566Z,83
2023-04-18T00:34:47.742Z,83
2023-04-18T00:35:54.888Z,83
2023-04-18T00:37:01.885Z,83
2023-04-18T00:38:08.503Z,83
2023-04-18T00:40:22.785Z,83
2023-04-18T00:41:29.809Z,83
2023-04-18T00:42:36.875Z,83
2023-04-18T00:43:43.464Z,83
2023-04-18T00:44:50.537Z,83
2023-04-18T00:45:57.772Z,83
2023-04-18T00:47:04.787Z,83
2023-04-18T00:48:11.843Z,83
2023-04-18T00:49:18.516Z,83
2023-04-18T00:50:25.618Z,83
2023-04-18T00:51:32.660Z,83
2023-04-18T00:52:39.948Z,83
2023-04-18T00:53:46.977Z,83
2023-04-18T00:54:53.462Z,83
2023-04-18T00:56:00.621Z,83
2023-04-18T00:57:07.779Z,83
2023-04-18T00:58:14.786Z,83
2023-04-18T00:59:21.917Z,83
2023-04-18T01:00:28.523Z,83
2023-04-18T01:01:35.673Z,83
2023-04-18T01:02:42.840Z,83
2023-04-18T01:03:50.087Z,83
2023-04-18T01:04:56.463Z,83
2023-04-18T01:06:03.450Z,83
2023-04-18T01:07:10.657Z,83
2023-04-18T01:08:17.741Z,83
2023-04-18T01:09:24.816Z,83
2023-04-18T01:10:31.418Z,83
2023-04-18T01:11:38.532Z,83
2023-04-18T01:12:45.733Z,83
2023-04-18T01:13:52.764Z,83
2023-04-18T01:14:59.881Z,83
2023-04-18T01:16:06.541Z,83
2023-04-18T01:17:13.629Z,83
2023-04-18T01:18:20.672Z,83
2023-04-18T01:19:27.726Z,83
2023-04-18T01:20:34.850Z,83
2023-04-18T01:21:41.434Z,83
2023-04-18T01:22:48.505Z,83
2023-04-18T01:23:55.680Z,83
2023-04-18T01:25:02.691Z,83
2023-04-18T01:26:09.871Z,84
2023-04-18T01:27:16.486Z,84
2023-04-18T01:28:23.631Z,84
2023-04-18T01:29:30.643Z,84
2023-04-18T01:30:37.766Z,84
2023-04-18T01:31:44.920Z,84
2023-04-18T01:32:51.529Z,84
2023-04-18T01:33:58.609Z,84
2023-04-18T01:35:05.632Z,84
2023-04-18T01:37:19.885Z,84
2023-04-18T01:38:26.510Z,84
2023-04-18T01:39:33.518Z,84
2023-04-18T01:40:40.656Z,84
2023-04-18T01:41:47.712Z,84
2023-04-18T01:44:01.429Z,84
2023-04-18T01:45:08.559Z,84
2023-04-18T01:46:15.722Z,84
2023-04-18T01:47:22.818Z,84
2023-04-18T01:48:29.935Z,84
2023-04-18T01:49:36.505Z,84
2023-04-18T01:50:43.509Z,84
2023-04-18T01:51:50.664Z,84
2023-04-18T01:52:57.766Z,84
2023-04-18T01:54:04.859Z,84
2023-04-18T01:55:11.561Z,84
2023-04-18T01:56:18.662Z,84
2023-04-18T01:57:25.715Z,84
2023-04-18T01:58:32.732Z,84
2023-04-18T01:59:39.951Z,84
2023-04-18T02:00:46.499Z,84
2023-04-18T02:01:54.149Z,84
2023-04-18T02:03:00.752Z,84
2023-04-18T02:04:08.101Z,84
2023-04-18T02:05:14.438Z,84
2023-04-18T02:06:21.497Z,84
2023-04-18T02:07:28.637Z,84
2023-04-18T02:08:35.862Z,84
2023-04-18T02:09:42.748Z,84
2023-04-18T02:10:49.364Z,84
2023-04-18T02:11:56.542Z,84
2023-04-18T02:13:03.559Z,84
2023-04-18T02:14:10.793Z,85
2023-04-18T02:15:17.848Z,84
2023-04-18T02:16:24.380Z,85
2023-04-18T02:17:31.549Z,85
2023-04-18T02:18:38.586Z,84
2023-04-18T02:19:45.805Z,84
2023-04-18T02:20:52.794Z,85
2023-04-18T02:21:59.478Z,85
2023-04-18T02:23:06.589Z,85
2023-04-18T02:24:13.859Z,84
2023-04-18T02:25:20.708Z,85
2023-04-18T02:26:27.854Z,84
2023-04-18T02:27:34.409Z,85
2023-04-18T02:28:41.488Z,85
2023-04-18T02:29:48.642Z,85
2023-04-18T02:30:55.733Z,85
2023-04-18T02:32:02.920Z,85
2023-04-18T02:33:09.385Z,85
2023-04-18T02:34:16.606Z,85
2023-04-18T02:35:23.678Z,85
2023-04-18T02:36:30.750Z,85
2023-04-18T02:37:37.869Z,85
2023-04-18T02:38:44.416Z,86
2023-04-18T02:39:51.535Z,86
2023-04-18T02:40:58.767Z,86
2023-04-18T02:42:05.718Z,86
2023-04-18T02:43:12.805Z,86
2023-04-18T02:44:19.474Z,86
2023-04-18T02:45:26.645Z,86
2023-04-18T02:47:51.227Z,86
2023-04-18T02:48:47.856Z,86
2023-04-18T02:49:54.394Z,86
2023-04-18T02:51:01.537Z,86
2023-04-18T02:52:08.640Z,86
2023-04-18T02:53:15.782Z,86
2023-04-18T02:54:22.802Z,86
2023-04-18T02:55:29.391Z,86
2023-04-18T02:56:36.536Z,86
2023-04-18T02:57:43.678Z,86
2023-04-18T02:58:50.828Z,86
2023-04-18T02:59:57.903Z,86
2023-04-18T03:01:04.477Z,86
2023-04-18T03:02:11.585Z,86
2023-04-18T03:03:18.708Z,86
2023-04-18T03:05:32.951Z,86
2023-04-18T03:06:39.605Z,86
2023-04-18T03:07:46.658Z,86
2023-04-18T03:08:53.620Z,86
2023-04-18T03:10:00.719Z,86
2023-04-18T03:11:07.941Z,86
2023-04-18T03:12:14.540Z,86
2023-04-18T03:13:21.595Z,86
2023-04-18T03:14:28.667Z,86
2023-04-18T03:15:35.960Z,86
2023-04-18T03:16:42.988Z,86
2023-04-18T03:17:49.658Z,86
2023-04-18T03:18:56.641Z,86
2023-04-18T03:20:03.714Z,86
2023-04-18T03:21:10.781Z,86
2023-04-18T03:22:17.924Z,86
2023-04-18T03:23:24.484Z,86
2023-04-18T03:24:31.600Z,86
2023-04-18T03:25:38.704Z,86
2023-04-18T03:26:45.859Z,86
2023-04-18T03:27:52.390Z,86
2023-04-18T03:28:59.556Z,86
2023-04-18T03:30:06.624Z,86
2023-04-18T03:31:13.802Z,86
2023-04-18T03:32:20.787Z,86
2023-04-18T03:33:27.428Z,86
2023-04-18T03:34:34.449Z,86
2023-04-18T03:35:41.605Z,86
2023-04-18T03:36:48.750Z,86
2023-04-18T03:37:55.863Z,86
2023-04-18T03:39:02.483Z,86
2023-04-18T03:40:09.572Z,86
2023-04-18T03:41:16.591Z,86
2023-04-18T03:42:23.714Z,86
2023-04-18T03:43:30.768Z,86
2023-04-18T03:44:37.465Z,86
2023-04-18T03:45:44.484Z,86
2023-04-18T03:46:51.619Z,86
2023-04-18T03:47:58.788Z,86
2023-04-18T03:49:05.825Z,86
2023-04-18T03:51:19.540Z,86
2023-04-18T03:52:29.191Z,86
2023-04-18T03:53:33.672Z,86
2023-04-18T03:54:40.922Z,86
2023-04-18T03:55:47.451Z,86
2023-04-18T03:56:54.540Z,86
2023-04-18T03:58:01.647Z,86
2023-04-18T03:59:09.306Z,86
2023-04-18T04:00:15.875Z,86
2023-04-18T04:01:22.437Z,86
2023-04-18T04:02:29.737Z,86
2023-04-18T04:03:36.990Z,86
2023-04-18T04:04:43.883Z,86
2023-04-18T04:05:50.381Z,86
2023-04-18T04:06:57.480Z,86
2023-04-18T04:08:04.592Z,86
2023-04-18T04:09:12.141Z,85
2023-04-18T04:10:18.771Z,85
2023-04-18T04:11:25.327Z,85
2023-04-18T04:12:32.438Z,85
2023-04-18T04:13:39.544Z,85
2023-04-18T04:14:46.798Z,85
2023-04-18T04:15:53.752Z,85
2023-04-18T04:17:00.359Z,85
2023-04-18T04:18:07.537Z,85
2023-04-18T04:19:14.669Z,85
2023-04-18T04:20:21.705Z,85
2023-04-18T04:21:28.818Z,85
2023-04-18T04:22:35.378Z,85
2023-04-18T04:23:42.524Z,85
2023-04-18T04:24:49.602Z,85
2023-04-18T04:25:56.669Z,85
2023-04-18T04:27:03.869Z,85
2023-04-18T04:28:10.319Z,85
2023-04-18T04:29:17.523Z,85
2023-04-18T04:30:24.735Z,85
2023-04-18T04:31:31.730Z,85
2023-04-18T04:33:45.392Z,85
2023-04-18T04:34:52.529Z,85
2023-04-18T04:35:59.565Z,85
2023-04-18T04:37:06.689Z,85
2023-04-18T04:38:13.789Z,85
2023-04-18T04:39:20.444Z,85
2023-04-18T04:40:27.502Z,85
2023-04-18T04:41:34.602Z,85
2023-04-18T04:42:41.721Z,85
2023-04-18T04:43:48.854Z,85
2023-04-18T04:44:55.416Z,85
2023-04-18T04:46:02.576Z,85
2023-04-18T04:47:09.580Z,85
2023-04-18T04:48:16.735Z,85
2023-04-18T04:49:23.784Z,85
2023-04-18T04:50:30.401Z,85
2023-04-18T04:51:37.524Z,85
2023-04-18T04:52:44.665Z,85
2023-04-18T04:54:58.873Z,85
2023-04-18T04:56:05.521Z,85
2023-04-18T04:57:12.446Z,85
2023-04-18T04:58:19.600Z,85
2023-04-18T04:59:26.746Z,86
2023-04-18T05:00:33.774Z,85
2023-04-18T05:01:40.440Z,86
2023-04-18T05:02:47.597Z,85
2023-04-18T05:03:54.850Z,86
2023-04-18T05:05:01.730Z,86
2023-04-18T05:06:08.814Z,86
2023-04-18T05:07:15.396Z,86
2023-04-18T05:08:22.528Z,86
2023-04-18T05:09:29.704Z,86
2023-04-18T05:10:36.769Z,86
2023-04-18T05:11:43.791Z,86
2023-04-18T05:12:50.901Z,86
2023-04-18T05:13:57.559Z,86
2023-04-18T05:15:04.677Z,86
2023-04-18T05:16:11.753Z,86
2023-04-18T05:17:18.844Z,86
2023-04-18T05:18:25.470Z,86
2023-04-18T05:19:32.559Z,86
2023-04-18T05:20:39.694Z,86
2023-04-18T05:21:46.740Z,86
2023-04-18T05:22:53.803Z,86
2023-04-18T05:24:00.428Z,86
2023-04-18T05:25:07.547Z,86
2023-04-18T05:26:14.677Z,86
2023-04-18T05:27:22.180Z,86
2023-04-18T05:28:28.922Z,86
2023-04-18T05:29:35.475Z,86
2023-04-18T05:30:42.501Z,86
2023-04-18T05:31:49.710Z,86
2023-04-18T05:32:56.838Z,86
2023-04-18T05:34:03.408Z,87
2023-04-18T05:35:10.745Z,87
2023-04-18T05:36:17.616Z,87
2023-04-18T05:37:24.637Z,87
2023-04-18T05:38:31.791Z,87
2023-04-18T05:39:38.432Z,87
2023-04-18T05:40:45.503Z,87
2023-04-18T05:41:52.527Z,87
2023-04-18T05:42:59.709Z,87
2023-04-18T05:44:06.855Z,87
2023-04-18T05:45:13.356Z,87
2023-04-18T05:46:20.453Z,87
2023-04-18T05:47:27.543Z,87
2023-04-18T05:48:34.899Z,87
2023-04-18T05:49:41.863Z,87
2023-04-18T05:50:48.356Z,87
2023-04-18T05:51:55.527Z,87
2023-04-18T05:53:02.580Z,87
2023-04-18T05:54:09.733Z,87
2023-04-18T05:55:17.000Z,87
2023-04-18T05:56:23.420Z,87
2023-04-18T05:57:30.475Z,87
2023-04-18T05:58:37.811Z,87
2023-04-18T05:59:44.696Z,87
2023-04-18T06:01:58.402Z,87
2023-04-18T06:03:07.188Z,87
2023-04-18T06:04:12.994Z,87
2023-04-18T06:05:19.933Z,87
2023-04-18T06:06:26.310Z,87
2023-04-18T06:07:33.368Z,87
2023-04-18T06:08:40.497Z,87
2023-04-18T06:09:47.776Z,87
2023-04-18T06:10:54.737Z,87
2023-04-18T06:12:02.884Z,87
2023-04-18T06:13:08.425Z,86
2023-04-18T06:14:15.775Z,86
2023-04-18T06:15:22.625Z,86
2023-04-18T06:16:29.867Z,86
2023-04-18T06:17:36.831Z,86
2023-04-18T06:18:43.421Z,86
2023-04-18T06:19:50.548Z,86
2023-04-18T06:20:57.855Z,86
2023-04-18T06:22:04.780Z,86
2023-04-18T06:23:11.831Z,86
2023-04-18T06:24:18.484Z,86
2023-04-18T06:25:25.556Z,86
2023-04-18T06:26:32.593Z,86
2023-04-18T06:27:39.782Z,86
2023-04-18T06:28:46.822Z,86
2023-04-18T06:29:53.442Z,86
2023-04-18T06:31:00.508Z,85
2023-04-18T06:32:07.694Z,85
2023-04-18T06:33:14.723Z,85
2023-04-18T06:34:21.303Z,85
2023-04-18T06:35:28.483Z,85
2023-04-18T06:36:35.554Z,85
2023-04-18T06:37:42.680Z,85
2023-04-18T06:38:49.703Z,85
2023-04-18T06:39:56.435Z,85
2023-04-18T06:41:03.479Z,85
2023-04-18T06:42:10.578Z,85
2023-04-18T06:43:17.638Z,85
2023-04-18T06:44:24.764Z,85
2023-04-18T06:45:31.426Z,85
2023-04-18T06:46:38.620Z,85
2023-04-18T06:47:45.656Z,85
2023-04-18T06:48:52.675Z,85
2023-04-18T06:49:59.813Z,85
2023-04-18T06:51:06.457Z,85
2023-04-18T06:52:13.470Z,85
2023-04-18T06:53:20.598Z,85
2023-04-18T06:54:27.713Z,85
2023-04-18T06:55:34.758Z,85
2023-04-18T06:56:41.375Z,85
2023-04-18T06:57:48.578Z,85
2023-04-18T06:58:55.649Z,85
2023-04-18T07:00:02.672Z,85
2023-04-18T07:01:09.860Z,85
2023-04-18T07:02:16.481Z,85
2023-04-18T07:03:23.574Z,85
2023-04-18T07:04:30.586Z,85
2023-04-18T07:05:37.792Z,85
2023-04-18T07:06:44.829Z,85
2023-04-18T07:07:51.317Z,84
2023-04-18T07:08:58.602Z,84
2023-04-18T07:10:05.648Z,84
2023-04-18T07:11:12.722Z,84
2023-04-18T07:12:19.749Z,84
2023-04-18T07:13:26.433Z,84
2023-04-18T07:14:34.285Z,84
2023-04-18T07:15:40.582Z,84
2023-04-18T07:16:47.708Z,84
2023-04-18T07:17:55.027Z,84
2023-04-18T07:19:01.429Z,83
2023-04-18T07:20:09.084Z,83
2023-04-18T07:21:15.679Z,83
2023-04-18T07:22:22.676Z,83
2023-04-18T07:23:29.285Z,83
2023-04-18T07:24:36.443Z,83
2023-04-18T07:25:43.475Z,83
2023-04-18T07:26:51.617Z,83
2023-04-18T07:27:57.805Z,83
2023-04-18T07:30:11.394Z,83
2023-04-18T07:31:18.550Z,83
2023-04-18T07:32:25.683Z,83
2023-04-18T07:33:32.665Z,83
2023-04-18T07:34:39.414Z,83
2023-04-18T07:35:46.459Z,83
2023-04-18T07:36:53.517Z,82
2023-04-18T07:38:00.667Z,82
2023-04-18T07:39:07.708Z,82
2023-04-18T07:40:14.389Z,82
2023-04-18T07:41:21.472Z,82
2023-04-18T07:42:28.525Z,82
2023-04-18T07:43:35.678Z,82
2023-04-18T07:44:42.750Z,82
2023-04-18T07:45:49.316Z,82
2023-04-18T07:46:56.397Z,82
2023-04-18T07:48:03.647Z,82
2023-04-18T07:49:10.676Z,82
2023-04-18T07:50:17.802Z,82
2023-04-18T07:51:24.332Z,82
2023-04-18T07:52:31.451Z,82
2023-04-18T07:53:38.604Z,82
2023-04-18T07:54:45.671Z,82
2023-04-18T07:55:52.701Z,82
2023-04-18T07:56:59.392Z,82
2023-04-18T07:58:06.474Z,82
2023-04-18T07:59:13.935Z,82
2023-04-18T08:00:20.611Z,82
2023-04-18T08:01:27.804Z,81
2023-04-18T08:02:34.413Z,81
2023-04-18T08:03:41.674Z,80
2023-04-18T08:05:55.691Z,80
2023-04-18T08:07:02.721Z,79
2023-04-18T08:08:09.395Z,79
2023-04-18T08:09:16.720Z,79
2023-04-18T08:10:23.915Z,79
2023-04-18T08:11:30.676Z,79
2023-04-18T08:12:37.754Z,79
2023-04-18T08:13:44.364Z,79
2023-04-18T08:14:51.415Z,79
2023-04-18T08:15:58.667Z,79
2023-04-18T08:17:05.700Z,78
2023-04-18T08:18:12.817Z,78
2023-04-18T08:19:19.384Z,78
2023-04-18T08:20:26.589Z,78
2023-04-18T08:21:33.750Z,78
2023-04-18T08:22:53.854Z,78
2023-04-18T08:23:47.845Z,78
2023-04-18T08:25:04.177Z,77
2023-04-18T08:26:01.488Z,77
2023-04-18T08:27:08.701Z,77
2023-04-18T08:28:15.804Z,77
2023-04-18T08:29:22.312Z,77
2023-04-18T08:30:29.419Z,78
2023-04-18T08:31:36.569Z,78
2023-04-18T08:32:43.612Z,78
2023-04-18T08:33:50.671Z,78
2023-04-18T08:34:57.327Z,77
2023-04-18T08:36:04.433Z,77
2023-04-18T08:37:11.445Z,77
2023-04-18T08:38:18.643Z,77
2023-04-18T08:39:25.824Z,77
2023-04-18T08:40:32.285Z,78
2023-04-18T08:41:39.382Z,78
2023-04-18T08:42:46.505Z,78
2023-04-18T08:43:55.255Z,78
2023-04-18T08:45:00.780Z,78
2023-04-18T08:46:07.355Z,77
2023-04-18T08:47:14.436Z,77
2023-04-18T08:48:21.511Z,77
2023-04-18T08:49:28.602Z,77
2023-04-18T08:50:35.710Z,77
2023-04-18T08:51:42.339Z,77
2023-04-18T08:52:49.521Z,77
2023-04-18T08:53:56.496Z,77
2023-04-18T08:55:03.602Z,77
2023-04-18T08:56:10.817Z,77
2023-04-18T08:58:24.434Z,77
2023-04-18T08:59:31.611Z,77
2023-04-18T09:00:38.645Z,77
2023-04-18T09:01:45.841Z,77
2023-04-18T09:02:52.487Z,77
2023-04-18T09:03:59.489Z,78
2023-04-18T09:05:06.521Z,78
2023-04-18T09:06:13.697Z,78
2023-04-18T09:07:20.806Z,77
2023-04-18T09:09:34.437Z,76
2023-04-18T09:10:41.604Z,76
2023-04-18T09:11:48.624Z,75
2023-04-18T09:12:55.774Z,75
2023-04-18T09:14:02.360Z,74
2023-04-18T09:15:09.502Z,74
2023-04-18T09:16:16.636Z,74
2023-04-18T09:17:23.777Z,73
2023-04-18T09:18:30.775Z,73
2023-04-18T09:19:37.459Z,73
2023-04-18T09:20:44.503Z,73
2023-04-18T09:21:51.613Z,73
2023-04-18T09:22:58.728Z,72
2023-04-18T09:24:05.795Z,71
2023-04-18T09:25:12.304Z,71
2023-04-18T09:26:19.557Z,70
2023-04-18T09:27:27.079Z,70
2023-04-18T09:28:34.051Z,70
2023-04-18T09:29:40.772Z,70
2023-04-18T09:30:47.363Z,69
2023-04-18T09:31:54.475Z,69
2023-04-18T09:33:01.721Z,69
2023-04-18T09:34:08.667Z,68
2023-04-18T09:35:15.407Z,69
2023-04-18T09:36:22.383Z,69
2023-04-18T09:37:29.509Z,68
2023-04-18T09:38:36.614Z,68
2023-04-18T09:39:43.722Z,68
2023-04-18T09:40:50.425Z,68
2023-04-18T09:41:57.360Z,68
2023-04-18T09:43:04.491Z,68
2023-04-18T09:44:14.301Z,67
2023-04-18T09:45:18.715Z,67
2023-04-18T09:46:25.500Z,67
2023-04-18T09:47:32.416Z,67
2023-04-18T09:48:39.562Z,67
2023-04-18T09:49:46.659Z,67
2023-04-18T09:50:53.757Z,67
2023-04-18T09:52:03.020Z,67
2023-04-18T09:53:07.457Z,66
2023-04-18T09:54:14.667Z,66
2023-04-18T09:55:21.629Z,66
2023-04-18T09:56:28.746Z,67
2023-04-18T09:57:35.280Z,67
2023-04-18T09:58:42.400Z,66
2023-04-18T09:59:49.579Z,66
2023-04-18T10:00:56.613Z,66
2023-04-18T10:02:03.862Z,66
2023-04-18T10:03:10.549Z,66
2023-04-18T10:04:17.726Z,66
2023-04-18T10:05:24.536Z,66
2023-04-18T10:06:31.712Z,66
2023-04-18T10:07:38.728Z,65
2023-04-18T10:08:45.429Z,65
2023-04-18T10:09:52.401Z,65
2023-04-18T10:10:59.554Z,65
2023-04-18T10:13:13.715Z,64
2023-04-18T10:14:20.362Z,65
2023-04-18T10:15:27.407Z,64
2023-04-18T10:16:36.131Z,64
2023-04-18T10:17:49.741Z,64
2023-04-18T10:18:48.270Z,64
2023-04-18T10:19:55.351Z,64
2023-04-18T10:21:02.419Z,64
2023-04-18T10:22:09.512Z,64
2023-04-18T10:23:16.673Z,63
2023-04-18T10:24:23.809Z,63
2023-04-18T10:26:37.474Z,62
2023-04-18T10:27:44.561Z,62
2023-04-18T10:28:51.588Z,62
2023-04-18T10:29:58.726Z,63
2023-04-18T10:31:05.951Z,63
2023-04-18T10:32:12.472Z,63
2023-04-18T10:33:29.406Z,62
2023-04-18T10:34:26.790Z,62
2023-04-18T10:35:33.197Z,62
2023-04-18T10:36:40.373Z,62
2023-04-18T10:37:47.487Z,62
2023-04-18T10:38:54.636Z,62
2023-04-18T10:40:01.707Z,61
2023-04-18T10:41:08.309Z,61
2023-04-18T10:42:15.334Z,61
2023-04-18T10:43:22.416Z,61
2023-04-18T10:44:29.604Z,61
2023-04-18T10:45:36.704Z,61
2023-04-18T10:46:43.304Z,61
2023-04-18T10:47:50.417Z,61
2023-04-18T10:48:57.418Z,60
2023-04-18T10:50:06.324Z,60
2023-04-18T10:51:11.680Z,60
2023-04-18T10:52:18.338Z,60
2023-04-18T10:53:25.359Z,60
2023-04-18T10:54:32.511Z,60
2023-04-18T10:55:39.616Z,60
2023-04-18T10:56:46.695Z,60
2023-04-18T10:57:53.249Z,59
2023-04-18T10:59:00.356Z,59
2023-04-18T11:00:07.553Z,60
2023-04-18T11:01:14.646Z,60
2023-04-18T11:02:21.683Z,60
2023-04-18T11:03:28.466Z,59
2023-04-18T11:04:35.614Z,59
2023-04-18T11:05:42.534Z,59
2023-04-18T11:06:49.598Z,58
2023-04-18T11:07:56.680Z,58
2023-04-18T11:09:03.273Z,58
2023-04-18T11:10:10.437Z,58
2023-04-18T11:11:17.614Z,58
2023-04-18T11:12:24.866Z,58
2023-04-18T11:13:31.712Z,58
2023-04-18T11:14:38.293Z,58
2023-04-18T11:16:52.522Z,58
2023-04-18T11:17:59.724Z,58
2023-04-18T11:19:06.789Z,58
2023-04-18T11:20:13.338Z,58
2023-04-18T11:21:20.422Z,58
2023-04-18T11:22:27.534Z,59
2023-04-18T11:23:34.668Z,59
2023-04-18T11:24:41.692Z,59
2023-04-18T11:25:48.337Z,59
2023-04-18T11:26:55.485Z,60
2023-04-18T11:28:02.552Z,60
2023-04-18T11:29:09.646Z,60
2023-04-18T11:30:16.740Z,60
2023-04-18T11:31:23.343Z,61
2023-04-18T11:32:30.560Z,61
2023-04-18T11:33:37.591Z,61
2023-04-18T11:34:44.709Z,62
2023-04-18T11:35:51.801Z,62
2023-04-18T11:36:58.437Z,62
2023-04-18T11:38:05.463Z,62
2023-04-18T11:39:12.541Z,63
2023-04-18T11:40:19.693Z,63
2023-04-18T11:41:26.235Z,63
2023-04-18T11:42:33.330Z,63
2023-04-18T11:43:40.480Z,63
2023-04-18T11:44:47.608Z,63
2023-04-18T11:45:54.737Z,63
2023-04-18T11:47:01.177Z,63
2023-04-18T11:48:08.400Z,63
2023-04-18T11:49:15.520Z,63
2023-04-18T11:50:22.559Z,64
2023-04-18T11:51:29.686Z,64
2023-04-18T11:52:36.258Z,64
2023-04-18T11:54:50.524Z,64
2023-04-18T11:55:57.598Z,64
2023-04-18T11:57:04.871Z,64
2023-04-18T11:58:11.279Z,64
2023-04-18T11:59:18.321Z,64
2023-04-18T12:00:25.514Z,64
2023-04-18T12:01:32.564Z,64
2023-04-18T12:02:39.895Z,64
2023-04-18T12:03:46.504Z,64
2023-04-18T12:04:53.827Z,64
2023-04-18T12:06:00.654Z,64
2023-04-18T12:07:07.816Z,64
2023-04-18T12:08:14.764Z,64
2023-04-18T12:09:21.270Z,64
2023-04-18T12:10:28.399Z,64
2023-04-18T12:11:35.466Z,64
2023-04-18T12:12:42.624Z,65
2023-04-18T12:13:49.719Z,65
2023-04-18T12:14:56.257Z,65
2023-04-18T12:16:03.352Z,65
2023-04-18T12:17:10.520Z,65
2023-04-18T12:18:17.633Z,65
2023-04-18T12:19:24.161Z,65
2023-04-18T12:20:31.282Z,65
2023-04-18T12:21:38.459Z,65
2023-04-18T12:22:45.479Z,65
2023-04-18T12:23:52.581Z,65
2023-04-18T12:24:59.246Z,65
2023-04-18T12:26:06.312Z,65
2023-04-18T12:27:13.404Z,66
2023-04-18T12:28:20.444Z,66
2023-04-18T12:29:27.653Z,66
2023-04-18T12:30:36.965Z,67
2023-04-18T12:31:41.346Z,67
2023-04-18T12:32:48.443Z,66
2023-04-18T12:33:55.539Z,66
2023-04-18T12:35:02.612Z,66
2023-04-18T12:36:09.245Z,66
2023-04-18T12:37:16.331Z,66
2023-04-18T12:38:23.964Z,65
2023-04-18T12:39:30.532Z,65
2023-04-18T12:40:37.712Z,65
2023-04-18T12:41:44.218Z,65
2023-04-18T12:42:51.277Z,65
2023-04-18T12:43:58.489Z,65
2023-04-18T12:45:05.572Z,65
2023-04-18T12:46:12.685Z,65
2023-04-18T12:47:19.240Z,65
2023-04-18T12:48:26.329Z,66
2023-04-18T12:49:33.574Z,66
2023-04-18T12:50:40.536Z,66
2023-04-18T12:51:47.699Z,66
2023-04-18T12:52:54.253Z,66
2023-04-18T12:54:01.265Z,66
2023-04-18T12:55:08.475Z,66
2023-04-18T12:56:15.567Z,66
2023-04-18T12:57:22.643Z,66
2023-04-18T12:58:29.227Z,67
2023-04-18T12:59:50.544Z,67
2023-04-18T13:00:43.549Z,67
2023-04-18T13:01:50.609Z,66
2023-04-18T13:02:57.754Z,66
2023-04-18T13:04:12.568Z,66
2023-04-18T13:05:11.279Z,67
2023-04-18T13:06:18.456Z,67
2023-04-18T13:07:26.594Z,67
2023-04-18T13:08:32.615Z,67
2023-04-18T13:09:39.221Z,67
2023-04-18T13:10:46.394Z,67
2023-04-18T13:11:53.444Z,67
2023-04-18T13:13:00.595Z,67
2023-04-18T13:14:07.699Z,66
2023-04-18T13:15:14.298Z,66
2023-04-18T13:16:21.390Z,66
2023-04-18T13:17:28.582Z,66
2023-04-18T13:18:35.535Z,66
2023-04-18T13:19:42.099Z,66
2023-04-18T13:20:49.238Z,66
2023-04-18T13:24:10.572Z,66
2023-04-18T13:25:17.175Z,66
2023-04-18T13:26:24.229Z,66
2023-04-18T13:27:31.316Z,66
2023-04-18T13:28:38.459Z,66
2023-04-18T13:29:45.628Z,66
2023-04-18T13:30:52.118Z,66
2023-04-18T13:31:59.276Z,66
2023-04-18T13:33:06.444Z,66
2023-04-18T13:34:13.528Z,66
2023-04-18T13:35:20.569Z,66
2023-04-18T13:36:27.215Z,66
2023-04-18T13:37:34.407Z,66
2023-04-18T13:38:41.375Z,67
2023-04-18T13:39:48.576Z,67
2023-04-18T13:41:08.498Z,67
2023-04-18T13:42:03.151Z,67
2023-04-18T13:43:09.355Z,66
2023-04-18T13:44:16.429Z,66
2023-04-18T13:45:23.499Z,66
2023-04-18T13:46:30.649Z,66
2023-04-18T13:47:37.253Z,66
2023-04-18T13:48:44.335Z,66
2023-04-18T13:49:51.345Z,66
2023-04-18T13:50:58.494Z,66
2023-04-18T13:52:05.597Z,66
2023-04-18T13:53:12.148Z,66
2023-04-18T13:54:19.285Z,66
2023-04-18T13:55:26.394Z,66
2023-04-18T13:56:33.539Z,66
2023-04-18T13:57:40.663Z,66
2023-04-18T13:58:48.319Z,66
2023-04-18T13:59:54.347Z,66
2023-04-18T14:01:01.410Z,65
2023-04-18T14:02:08.656Z,65
2023-04-18T14:03:15.772Z,65
2023-04-18T14:04:22.505Z,65
2023-04-18T14:05:29.351Z,65
2023-04-18T14:06:36.471Z,65
2023-04-18T14:07:43.555Z,65
2023-04-18T14:08:50.666Z,65
2023-04-18T14:09:57.207Z,65
2023-04-18T14:11:04.400Z,65
2023-04-18T14:12:11.391Z,65
2023-04-18T14:13:18.563Z,65
2023-04-18T14:14:25.595Z,65
2023-04-18T14:15:32.296Z,65
2023-04-18T14:16:39.414Z,65
2023-04-18T14:17:46.539Z,65
2023-04-18T14:18:53.537Z,64
2023-04-18T14:20:00.661Z,63
2023-04-18T14:21:07.316Z,63
2023-04-18T14:22:14.370Z,62
2023-04-18T14:23:21.453Z,61
2023-04-18T14:24:28.609Z,60
2023-04-18T14:25:35.669Z,60
2023-04-18T14:27:49.385Z,59
2023-04-18T14:28:56.509Z,58
2023-04-18T14:30:03.508Z,58
2023-04-18T14:31:10.696Z,58
2023-04-18T14:32:17.338Z,57
2023-04-18T14:33:24.413Z,57
2023-04-18T14:34:33.705Z,57
2023-04-18T14:35:38.533Z,56
2023-04-18T14:36:45.200Z,55
2023-04-18T14:37:52.222Z,54
2023-04-18T14:38:59.349Z,54
2023-04-18T14:40:06.527Z,53
2023-04-18T14:41:13.585Z,53
2023-04-18T14:42:20.145Z,53
2023-04-18T14:43:27.309Z,53
2023-04-18T14:44:34.386Z,52
2023-04-18T14:45:41.997Z,53
2023-04-18T14:46:48.682Z,52
2023-04-18T14:47:55.182Z,52
2023-04-18T14:49:02.338Z,52
2023-04-18T14:50:09.449Z,52
2023-04-18T14:51:16.624Z,52
2023-04-18T14:52:23.586Z,52
2023-04-18T14:53:30.224Z,51
2023-04-18T14:54:37.299Z,51
2023-04-18T14:55:44.392Z,51
2023-04-18T14:56:51.470Z,51
2023-04-18T14:57:58.650Z,50
2023-04-18T14:59:05.175Z,50
2023-04-18T15:00:12.267Z,50
2023-04-18T15:01:19.458Z,50
2023-04-18T15:02:26.811Z,50
2023-04-18T15:03:33.807Z,50
2023-04-18T15:04:40.229Z,50
2023-04-18T15:05:47.372Z,49
2023-04-18T15:06:54.387Z,49
2023-04-18T15:08:01.530Z,49
2023-04-18T15:09:08.701Z,49
2023-04-18T15:10:15.226Z,49
2023-04-18T15:11:22.295Z,49
2023-04-18T15:12:29.436Z,49
2023-04-18T15:13:36.570Z,48
2023-04-18T15:14:43.597Z,49
2023-04-18T15:15:50.259Z,49
2023-04-18T15:16:57.293Z,49
2023-04-18T15:18:04.531Z,49
2023-04-18T15:19:11.479Z,48
2023-04-18T15:20:18.660Z,48
2023-04-18T15:21:25.256Z,48
2023-04-18T15:22:32.350Z,48
2023-04-18T15:23:39.430Z,48
2023-04-18T15:24:46.574Z,48
2023-04-18T15:25:53.110Z,48
2023-04-18T15:27:01.233Z,47
2023-04-18T15:28:07.444Z,47
2023-04-18T15:29:14.492Z,47
2023-04-18T15:31:28.734Z,47
2023-04-18T15:32:35.299Z,47
2023-04-18T15:33:42.347Z,47
2023-04-18T15:34:49.429Z,47
2023-04-18T15:35:56.533Z,47
2023-04-18T15:37:03.129Z,47
2023-04-18T15:38:10.259Z,47
2023-04-18T15:39:17.485Z,47
2023-04-18T15:40:24.471Z,47
2023-04-18T15:41:31.497Z,47
2023-04-18T15:42:38.088Z,47
2023-04-18T15:43:45.227Z,46
2023-04-18T15:44:52.340Z,47
2023-04-18T15:45:59.477Z,47
2023-04-18T15:47:06.585Z,47
2023-04-18T15:48:13.192Z,47
2023-04-18T15:49:20.737Z,47
2023-04-18T15:50:27.380Z,47
2023-04-18T15:51:34.515Z,46
2023-04-18T15:52:41.574Z,46
2023-04-18T15:53:48.170Z,46
2023-04-18T15:54:55.322Z,46
2023-04-18T15:56:02.373Z,46
2023-04-18T15:57:09.483Z,46
2023-04-18T15:58:16.652Z,46
2023-04-18T15:59:23.118Z,46
2023-04-18T16:00:30.247Z,46
2023-04-18T16:01:37.453Z,46
2023-04-18T16:02:44.726Z,46
2023-04-18T16:03:51.716Z,46
2023-04-18T16:04:58.148Z,46
2023-04-18T16:06:05.312Z,46
2023-04-18T16:07:12.401Z,46
2023-04-18T16:08:19.498Z,46
2023-04-18T16:09:26.568Z,46
2023-04-18T16:10:33.136Z,46
2023-04-18T16:11:40.319Z,46
2023-04-18T16:12:47.456Z,45
2023-04-18T16:13:54.487Z,45
2023-04-18T16:15:01.641Z,45
2023-04-18T16:16:08.262Z,45
2023-04-18T16:17:15.266Z,45
2023-04-18T16:19:29.495Z,45
2023-04-18T16:20:36.679Z,45